Airfield :
LOGIN :

Register | Disclaimer

   EN    FR    IT 

 










Legend :    VFR   Marginal VFR   IFR   Intensive IFR   Very Intensive IFR
Visi :
Ceiling :
>= 8 km
>= 3000ft
5 to 8 km
1000 to 3000 ft
1500m to 5 km
500 to 1000 ft
800 to 1500m
200 to 500 ft
< 800m
< 200 ft
Symbols :   Thunderstorms  Fog  Heavy snow  Heavy precipitations  Wind > 20 kt
SIGMETs :     Misc.  Thunderstorms  Icing  Turbulence  Mountain Waves  Volcanic Ashes







- Airport Elevation : 14 ft
- IATA code : BRE


EDDW - Bremen Neuenland

CURRENT METAR :
  • 230850Z 18016KT CAVOK 12/05 Q0998 BECMG 20015G25KT

EXPIRED METARs :
  • 230820Z 17015KT CAVOK 11/05 Q0998 NOSIG
  • 230750Z 17012KT CAVOK 11/05 Q0998 NOSIG
  • 230720Z 17015KT CAVOK 10/04 Q0998 NOSIG
  • 230650Z 17012KT CAVOK 10/04 Q0999 NOSIG
  • 230620Z 17012KT CAVOK 10/04 Q0999 NOSIG

TAF TAF EDDW
Valid from the 23 at 06:00 until the 24 at 06:00 UTC


230500Z 2306/2406 19012KT 9999 SCT035
BECMG 2306/2308 20015G25KT
TEMPO 2309/2314 21020G35KT
PROB30
TEMPO 2314/2316 RA BKN014
BECMG 2315/2317 23009KT
BECMG 2402/2404 17004KT
PROB30
TEMPO 2405/2406 RA BKN014
No reported NOTAMs for that airfield.



MET'MAP, your aeronautical weather chart ! - Copyright ORBIFLY December 2007 - Disclaimer

ORBIFLY MET'MAP TEAM :

Programming & Development : Alexandra Zaïnal
Concept & Development : Baudouin d'Aumeries
Co-Development & Prog : Marc-Olivier Méhu
Technical & hardware support : Manuel Goepfert

Contact : metmap@orbifly.com




SOURCES & CREDITS :

   NOAA